createdAt,value
2022-07-30T00:01:21.205Z,96957.63
2022-07-30T00:03:49.564Z,96961.25
2022-07-30T00:06:19.865Z,96959.44
2022-07-30T00:08:48.120Z,96955.38
2022-07-30T00:11:16.423Z,96962.41
2022-07-30T00:13:45.987Z,96958.41
2022-07-30T00:16:14.523Z,96955.94
2022-07-30T00:18:42.788Z,96950.59
2022-07-30T00:21:11.269Z,96953.22
2022-07-30T00:24:01.364Z,96943.28
2022-07-30T00:26:30.415Z,96952.31
2022-07-30T00:29:00.145Z,96954.88
2022-07-30T00:31:30.570Z,96946.13
2022-07-30T00:33:58.824Z,96953.13
2022-07-30T00:36:27.188Z,96948.16
2022-07-30T00:38:55.411Z,96951.81
2022-07-30T00:41:24.329Z,96947.69
2022-07-30T00:43:55.126Z,96954.03
2022-07-30T00:46:25.090Z,96956.28
2022-07-30T00:48:53.535Z,96953.47
2022-07-30T00:51:21.868Z,96952.16
2022-07-30T00:53:50.178Z,96942.63
2022-07-30T00:56:18.428Z,96948.53
2022-07-30T00:58:46.654Z,96946.94
2022-07-30T01:01:14.921Z,96957.66
2022-07-30T01:03:44.648Z,96950.75
2022-07-30T01:06:14.330Z,96954.88
2022-07-30T01:08:43.370Z,96953.72
2022-07-30T01:11:12.694Z,96947.91
2022-07-30T01:13:44.629Z,96955.63
2022-07-30T01:16:14.503Z,96945.28
2022-07-30T01:19:05.531Z,96948.00
2022-07-30T01:21:39.325Z,96939.94
2022-07-30T01:24:26.825Z,96937.28
2022-07-30T01:26:58.787Z,96945.69
2022-07-30T01:29:30.318Z,96948.59
2022-07-30T01:32:01.045Z,96951.69
2022-07-30T01:34:33.743Z,96950.56
2022-07-30T01:37:05.961Z,96950.97
2022-07-30T01:39:36.216Z,96957.59
2022-07-30T01:42:09.269Z,96954.19
2022-07-30T01:44:41.653Z,96946.25
2022-07-30T01:47:14.405Z,96953.81
2022-07-30T01:49:43.660Z,96948.47
2022-07-30T01:52:13.347Z,96943.44
2022-07-30T01:54:45.371Z,96954.88
2022-07-30T01:57:17.541Z,96950.09
2022-07-30T01:59:52.859Z,96947.63
2022-07-30T02:02:21.836Z,96942.78
2022-07-30T02:04:51.135Z,96945.16
2022-07-30T02:07:28.611Z,96939.34
2022-07-30T02:10:06.104Z,96938.50
2022-07-30T02:12:49.814Z,96947.28
2022-07-30T02:15:30.674Z,96940.19
2022-07-30T02:18:08.946Z,96950.78
2022-07-30T02:20:44.304Z,96941.75
2022-07-30T02:23:20.543Z,96948.09
2022-07-30T02:25:52.749Z,96942.69
2022-07-30T02:28:27.690Z,96937.31
2022-07-30T02:31:01.053Z,96941.69
2022-07-30T02:33:49.164Z,96938.47
2022-07-30T02:36:20.905Z,96953.25
2022-07-30T02:38:52.418Z,96948.97
2022-07-30T02:41:24.818Z,96947.63
2022-07-30T02:43:57.787Z,96949.47
2022-07-30T02:46:27.535Z,96949.94
2022-07-30T02:49:18.721Z,96950.53
2022-07-30T02:51:49.284Z,96952.53
2022-07-30T02:54:21.114Z,96954.22
2022-07-30T02:56:52.814Z,96947.13
2022-07-30T02:59:27.185Z,96941.22
2022-07-30T03:01:57.627Z,96956.63
2022-07-30T03:04:29.149Z,96942.06
2022-07-30T03:06:58.149Z,96948.78
2022-07-30T03:09:27.816Z,96948.53
2022-07-30T03:12:17.493Z,96952.81
2022-07-30T03:14:47.189Z,96946.50
2022-07-30T03:17:18.927Z,96940.88
2022-07-30T03:19:50.457Z,96952.72
2022-07-30T03:22:21.113Z,96943.28
2022-07-30T03:24:51.581Z,96950.38
2022-07-30T03:27:20.905Z,96947.94
2022-07-30T03:29:54.667Z,96957.34
2022-07-30T03:32:26.181Z,96950.97
2022-07-30T03:34:56.528Z,96955.31
2022-07-30T03:37:27.531Z,96952.88
2022-07-30T03:39:59.550Z,96966.53
2022-07-30T03:42:30.008Z,96959.78
2022-07-30T03:45:02.108Z,96968.03
2022-07-30T03:47:34.607Z,96962.19
2022-07-30T03:50:04.739Z,96968.91
2022-07-30T03:52:36.423Z,96969.31
2022-07-30T03:55:12.778Z,96980.47
2022-07-30T03:57:50.256Z,96974.69
2022-07-30T04:00:22.629Z,96976.16
2022-07-30T04:02:54.469Z,96974.69
2022-07-30T04:05:41.191Z,96976.88
2022-07-30T04:08:10.485Z,96975.19
2022-07-30T04:10:39.978Z,96988.47
2022-07-30T04:13:33.629Z,96990.44
2022-07-30T04:16:40.983Z,96993.59
2022-07-30T04:19:08.927Z,96988.34
2022-07-30T04:21:39.617Z,96987.06
2022-07-30T04:24:10.674Z,96990.72
2022-07-30T04:26:40.808Z,96988.91
2022-07-30T04:29:17.264Z,97006.34
2022-07-30T04:31:48.517Z,97003.72
2022-07-30T04:34:37.185Z,97004.56
2022-07-30T04:37:09.323Z,97009.50
2022-07-30T04:39:37.662Z,97004.81
2022-07-30T04:42:06.058Z,97015.25
2022-07-30T04:44:38.498Z,97025.19
2022-07-30T04:47:46.279Z,97018.00
2022-07-30T04:50:47.083Z,97019.19
2022-07-30T04:53:19.742Z,97023.00
2022-07-30T04:55:59.117Z,97024.34
2022-07-30T04:58:30.905Z,97031.59
2022-07-30T05:01:01.367Z,97027.66
2022-07-30T05:03:36.417Z,97028.69
2022-07-30T05:06:07.379Z,97034.31
2022-07-30T05:08:39.814Z,97032.06
2022-07-30T05:11:13.495Z,97026.97
2022-07-30T05:13:46.173Z,97040.69
2022-07-30T05:16:16.001Z,97042.28
2022-07-30T05:18:46.918Z,97040.31
2022-07-30T05:21:15.158Z,97040.25
2022-07-30T05:23:50.145Z,97044.44
2022-07-30T05:26:54.741Z,97048.56
2022-07-30T05:29:24.190Z,97041.38
2022-07-30T05:31:59.066Z,97051.59
2022-07-30T05:34:34.130Z,97038.63
2022-07-30T05:37:02.890Z,97047.25
2022-07-30T05:39:32.129Z,97050.06
2022-07-30T05:42:20.384Z,97056.06
2022-07-30T05:44:51.118Z,97061.03
2022-07-30T05:47:21.080Z,97052.88
2022-07-30T05:49:53.169Z,97059.06
2022-07-30T05:52:21.406Z,97060.72
2022-07-30T05:54:49.952Z,97049.31
2022-07-30T05:57:50.709Z,97056.56
2022-07-30T06:00:19.780Z,97057.25
2022-07-30T06:02:54.715Z,97063.00
2022-07-30T06:05:47.411Z,97064.34
2022-07-30T06:08:16.047Z,97065.75
2022-07-30T06:10:44.431Z,97069.03
2022-07-30T06:13:13.617Z,97070.88
2022-07-30T06:15:42.197Z,97067.72
2022-07-30T06:18:10.748Z,97071.41
2022-07-30T06:20:46.540Z,97068.31
2022-07-30T06:23:43.781Z,97071.81
2022-07-30T06:26:19.775Z,97070.22
2022-07-30T06:28:48.915Z,97073.78
2022-07-30T06:31:22.351Z,97070.31
2022-07-30T06:33:50.740Z,97068.19
2022-07-30T06:36:20.445Z,97066.72
2022-07-30T06:39:11.804Z,97073.53
2022-07-30T06:42:08.861Z,97072.81
2022-07-30T06:45:03.738Z,97074.06
2022-07-30T06:47:52.016Z,97074.16
2022-07-30T06:50:20.600Z,97071.69
2022-07-30T06:52:50.251Z,97074.84
2022-07-30T06:55:19.141Z,97074.53
2022-07-30T06:57:51.855Z,97068.50
2022-07-30T07:00:46.090Z,97072.16
2022-07-30T07:03:15.648Z,97074.91
2022-07-30T07:05:44.275Z,97079.72
2022-07-30T07:08:14.029Z,97080.88
2022-07-30T07:10:48.952Z,97075.72
2022-07-30T07:13:26.525Z,97076.50
2022-07-30T07:15:55.386Z,97070.13
2022-07-30T07:18:25.458Z,97080.47
2022-07-30T07:21:02.482Z,97084.38
2022-07-30T07:23:36.455Z,97078.03
2022-07-30T07:26:32.145Z,97078.47
2022-07-30T07:29:04.986Z,97074.06
2022-07-30T07:32:06.325Z,97068.19
2022-07-30T07:34:23.003Z,97074.44
2022-07-30T07:36:51.358Z,97071.22
2022-07-30T07:39:21.089Z,97069.63
2022-07-30T07:41:50.653Z,97076.81
2022-07-30T07:44:24.333Z,97072.94
2022-07-30T07:46:52.928Z,97073.34
2022-07-30T07:49:22.022Z,97063.25
2022-07-30T07:51:52.713Z,97069.31
2022-07-30T07:54:23.552Z,97064.16
2022-07-30T07:56:56.742Z,97073.53
2022-07-30T07:59:40.640Z,97067.78
2022-07-30T08:02:17.918Z,97076.22
2022-07-30T08:05:00.815Z,97073.50
2022-07-30T08:07:49.064Z,97080.44
2022-07-30T08:10:44.510Z,97075.09
2022-07-30T08:13:48.564Z,97084.41
2022-07-30T08:16:23.246Z,97075.44
2022-07-30T08:19:10.973Z,97083.44
2022-07-30T08:21:41.755Z,97084.41
2022-07-30T08:24:11.242Z,97088.84
2022-07-30T08:26:40.845Z,97086.75
2022-07-30T08:29:13.037Z,97085.53
2022-07-30T08:31:45.512Z,97084.25
2022-07-30T08:34:14.422Z,97084.31
2022-07-30T08:36:43.339Z,97093.22
2022-07-30T08:39:11.711Z,97086.84
2022-07-30T08:41:43.773Z,97096.28
2022-07-30T08:44:13.551Z,97092.75
2022-07-30T08:46:47.233Z,97093.47
2022-07-30T08:49:47.188Z,97086.69
2022-07-30T08:52:16.595Z,97091.75
2022-07-30T08:54:56.752Z,97094.50
2022-07-30T08:57:26.874Z,97101.94
2022-07-30T09:00:00.609Z,97101.31
2022-07-30T09:02:33.207Z,97095.38
2022-07-30T09:05:07.489Z,97092.00
2022-07-30T09:07:37.243Z,97091.28
2022-07-30T09:10:11.530Z,97095.78
2022-07-30T09:12:44.397Z,97089.28
2022-07-30T09:15:16.736Z,97094.97
2022-07-30T09:18:04.547Z,97097.66
2022-07-30T09:20:38.247Z,97092.06
2022-07-30T09:23:10.013Z,97093.69
2022-07-30T09:25:41.364Z,97088.88
2022-07-30T09:28:33.113Z,97081.63
2022-07-30T09:31:24.013Z,97086.75
2022-07-30T09:34:26.895Z,97080.38
2022-07-30T09:36:59.500Z,97080.47
2022-07-30T09:39:59.376Z,97081.38
2022-07-30T09:43:05.358Z,97072.78
2022-07-30T09:45:36.373Z,97079.25
2022-07-30T09:48:23.965Z,97071.72
2022-07-30T09:50:53.443Z,97074.63
2022-07-30T09:53:23.494Z,97073.34
2022-07-30T09:55:52.724Z,97072.41
2022-07-30T09:58:26.969Z,97081.13
2022-07-30T10:01:00.418Z,97067.75
2022-07-30T10:03:44.312Z,97067.50
2022-07-30T10:06:44.254Z,97070.81
2022-07-30T10:09:29.703Z,97077.00
2022-07-30T10:12:02.575Z,97074.63
2022-07-30T10:14:42.746Z,97072.63
2022-07-30T10:17:17.698Z,97069.72
2022-07-30T10:20:15.654Z,97072.13
2022-07-30T10:23:07.906Z,97075.34
2022-07-30T10:25:48.907Z,97076.97
2022-07-30T10:28:43.572Z,97068.38
2022-07-30T10:31:49.440Z,97074.88
2022-07-30T10:34:03.202Z,97067.19
2022-07-30T10:36:32.999Z,97070.03
2022-07-30T10:39:02.822Z,97074.97
2022-07-30T10:41:53.974Z,97064.16
2022-07-30T10:44:53.548Z,97072.13
2022-07-30T10:47:29.855Z,97070.38
2022-07-30T10:50:11.719Z,97064.81
2022-07-30T10:52:52.675Z,97075.84
2022-07-30T10:55:36.482Z,97071.44
2022-07-30T10:58:09.286Z,97068.88
2022-07-30T11:01:01.562Z,97077.16
2022-07-30T11:03:41.611Z,97064.84
2022-07-30T11:06:30.345Z,97074.06
2022-07-30T11:08:59.163Z,97061.38
2022-07-30T11:12:05.484Z,97072.28
2022-07-30T11:15:06.430Z,97062.22
2022-07-30T11:18:12.557Z,97061.84
2022-07-30T11:20:47.681Z,97058.72
2022-07-30T11:23:41.077Z,97059.75
2022-07-30T11:26:14.259Z,97058.78
2022-07-30T11:28:49.274Z,97063.66
2022-07-30T11:31:57.925Z,97055.53
2022-07-30T11:34:31.118Z,97057.84
2022-07-30T11:37:19.303Z,97060.63
2022-07-30T11:40:11.852Z,97060.97
2022-07-30T11:42:43.171Z,97066.16
2022-07-30T11:45:30.603Z,97064.59
2022-07-30T11:48:03.303Z,97067.69
2022-07-30T11:50:34.388Z,97066.38
2022-07-30T11:53:07.203Z,97070.13
2022-07-30T11:55:39.931Z,97081.38
2022-07-30T11:58:10.687Z,97057.13
2022-07-30T12:00:41.478Z,97060.63
2022-07-30T12:03:15.410Z,97053.38
2022-07-30T12:05:44.920Z,97054.47
2022-07-30T12:08:31.970Z,97052.56
2022-07-30T12:11:05.888Z,97055.81
2022-07-30T12:13:43.886Z,97056.22
2022-07-30T12:16:17.362Z,97069.19
2022-07-30T12:18:47.285Z,97072.59
2022-07-30T12:21:16.824Z,97068.91
2022-07-30T12:23:56.477Z,97069.22
2022-07-30T12:26:29.423Z,97082.88
2022-07-30T12:28:59.409Z,97066.84
2022-07-30T12:31:28.362Z,97074.38
2022-07-30T12:33:58.289Z,97079.88
2022-07-30T12:36:33.496Z,97070.19
2022-07-30T12:39:04.889Z,97074.50
2022-07-30T12:41:45.762Z,97065.88
2022-07-30T12:44:35.680Z,97069.53
2022-07-30T12:47:05.926Z,97067.19
2022-07-30T12:49:39.362Z,97071.69
2022-07-30T12:52:29.347Z,97064.13
2022-07-30T12:55:02.730Z,97070.66
2022-07-30T12:57:54.178Z,97064.56
2022-07-30T13:00:23.874Z,97072.16
2022-07-30T13:02:52.350Z,97062.09
2022-07-30T13:05:20.846Z,97058.25
2022-07-30T13:08:01.462Z,97056.78
2022-07-30T13:10:31.532Z,97061.16
2022-07-30T13:13:02.362Z,97058.31
2022-07-30T13:15:30.730Z,97056.53
2022-07-30T13:17:58.987Z,97057.47
2022-07-30T13:20:27.614Z,97051.41
2022-07-30T13:23:00.113Z,97044.44
2022-07-30T13:25:38.742Z,97046.22
2022-07-30T13:28:09.981Z,97057.22
2022-07-30T13:30:38.361Z,97058.00
2022-07-30T13:33:06.592Z,97051.75
2022-07-30T13:35:35.201Z,97047.31
2022-07-30T13:38:03.527Z,97049.84
2022-07-30T13:40:32.699Z,97064.09
2022-07-30T13:43:02.583Z,97052.97
2022-07-30T13:45:32.294Z,97055.03
2022-07-30T13:48:00.552Z,97059.78
2022-07-30T13:50:28.916Z,97063.91
2022-07-30T13:53:01.812Z,97054.50
2022-07-30T13:55:30.723Z,97058.03
2022-07-30T13:57:59.837Z,97042.31
2022-07-30T14:00:32.453Z,97052.13
2022-07-30T14:03:04.265Z,97047.41
2022-07-30T14:05:33.847Z,97050.28
2022-07-30T14:08:02.050Z,97052.59
2022-07-30T14:10:30.697Z,97043.97
2022-07-30T14:12:59.974Z,97039.31
2022-07-30T14:15:31.775Z,97049.59
2022-07-30T14:18:02.379Z,97040.72
2022-07-30T14:20:31.145Z,97041.66
2022-07-30T14:22:59.725Z,97031.69
2022-07-30T14:25:28.097Z,97032.38
2022-07-30T14:27:56.718Z,97048.09
2022-07-30T14:30:25.127Z,97034.69
2022-07-30T14:32:59.192Z,97043.03
2022-07-30T14:35:31.254Z,97025.22
2022-07-30T14:38:00.117Z,97032.16
2022-07-30T14:40:28.286Z,97041.41
2022-07-30T14:42:56.517Z,97033.75
2022-07-30T14:45:26.716Z,97013.28
2022-07-30T14:47:57.096Z,97024.63
2022-07-30T14:50:25.296Z,97024.34
2022-07-30T14:52:54.849Z,97028.50
2022-07-30T14:55:23.069Z,97018.81
2022-07-30T14:57:52.374Z,97026.34
2022-07-30T15:00:21.350Z,97018.91
2022-07-30T15:02:52.533Z,97023.53
2022-07-30T15:05:20.862Z,97017.06
2022-07-30T15:07:49.062Z,97035.19
2022-07-30T15:10:19.083Z,97030.78
2022-07-30T15:12:47.258Z,97031.25
2022-07-30T15:15:16.410Z,97027.00
2022-07-30T15:17:44.640Z,97036.06
2022-07-30T15:20:13.718Z,97031.34
2022-07-30T15:22:41.885Z,97026.97
2022-07-30T15:25:10.533Z,97024.13
2022-07-30T15:27:40.055Z,97025.81
2022-07-30T15:30:09.396Z,97027.63
2022-07-30T15:32:38.355Z,97041.16
2022-07-30T15:35:11.807Z,97041.03
2022-07-30T15:37:42.479Z,97037.59
2022-07-30T15:40:11.650Z,97032.81
2022-07-30T15:42:42.620Z,97034.38
2022-07-30T15:45:17.714Z,97027.41
2022-07-30T15:47:46.974Z,97040.16
2022-07-30T15:50:15.426Z,97039.72
2022-07-30T15:52:44.178Z,97030.69
2022-07-30T15:55:13.384Z,97032.84
2022-07-30T15:57:44.441Z,97032.91
2022-07-30T16:00:14.119Z,97040.97
2022-07-30T16:02:43.929Z,97041.25
2022-07-30T16:05:14.207Z,97046.38
2022-07-30T16:07:43.042Z,97039.78
2022-07-30T16:10:11.681Z,97041.00
2022-07-30T16:12:40.170Z,97042.91
2022-07-30T16:15:11.363Z,97031.06
2022-07-30T16:17:40.105Z,97040.00
2022-07-30T16:20:14.316Z,97030.00
2022-07-30T16:22:42.499Z,97046.00
2022-07-30T16:25:11.448Z,97040.81
2022-07-30T16:27:39.762Z,97044.16
2022-07-30T16:30:11.192Z,97046.00
2022-07-30T16:32:39.686Z,97044.22
2022-07-30T16:35:13.152Z,97040.81
2022-07-30T16:37:41.723Z,97048.28
2022-07-30T16:40:11.600Z,97036.31
2022-07-30T16:42:39.846Z,97036.53
2022-07-30T16:45:10.991Z,97041.69
2022-07-30T16:47:39.170Z,97048.38
2022-07-30T16:50:09.258Z,97049.25
2022-07-30T16:52:39.278Z,97044.06
2022-07-30T16:55:28.615Z,97036.22
2022-07-30T16:57:56.831Z,97046.63
2022-07-30T17:00:26.744Z,97041.66
2022-07-30T17:02:54.916Z,97045.09
2022-07-30T17:05:25.139Z,97053.50
2022-07-30T17:07:53.374Z,97051.50
2022-07-30T17:10:23.557Z,97055.34
2022-07-30T17:12:54.634Z,97055.19
2022-07-30T17:15:32.416Z,97063.88
2022-07-30T17:18:01.502Z,97060.69
2022-07-30T17:20:30.062Z,97059.69
2022-07-30T17:22:58.335Z,97062.72
2022-07-30T17:25:27.408Z,97063.13
2022-07-30T17:27:56.328Z,97063.69
2022-07-30T17:30:28.264Z,97066.75
2022-07-30T17:32:56.766Z,97068.50
2022-07-30T17:35:26.032Z,97060.69
2022-07-30T17:37:55.092Z,97074.25
2022-07-30T17:40:29.820Z,97080.06
2022-07-30T17:43:03.840Z,97066.44
2022-07-30T17:45:35.329Z,97076.59
2022-07-30T17:48:03.701Z,97067.28
2022-07-30T17:50:33.318Z,97076.50
2022-07-30T17:53:03.537Z,97081.03
2022-07-30T17:55:57.693Z,97082.13
2022-07-30T17:58:28.168Z,97101.97
2022-07-30T18:01:02.989Z,97096.59
2022-07-30T18:03:39.325Z,97094.00
2022-07-30T18:06:21.353Z,97096.53
2022-07-30T18:08:52.186Z,97109.03
2022-07-30T18:11:24.446Z,97100.41
2022-07-30T18:14:04.496Z,97106.50
2022-07-30T18:16:36.456Z,97103.34
2022-07-30T18:19:07.031Z,97103.44
2022-07-30T18:21:38.603Z,97114.22
2022-07-30T18:24:09.355Z,97112.69
2022-07-30T18:26:44.154Z,97119.06
2022-07-30T18:29:16.192Z,97119.84
2022-07-30T18:31:46.606Z,97120.28
2022-07-30T18:34:15.020Z,97122.22
2022-07-30T18:36:43.632Z,97126.25
2022-07-30T18:39:12.089Z,97136.19
2022-07-30T18:41:40.467Z,97139.34
2022-07-30T18:44:08.824Z,97136.56
2022-07-30T18:46:37.227Z,97138.94
2022-07-30T18:49:26.651Z,97144.06
2022-07-30T18:51:55.479Z,97142.06
2022-07-30T18:54:24.952Z,97148.00
2022-07-30T18:56:53.247Z,97147.16
2022-07-30T18:59:21.563Z,97151.94
2022-07-30T19:01:49.941Z,97157.13
2022-07-30T19:04:19.753Z,97156.63
2022-07-30T19:06:48.119Z,97158.53
2022-07-30T19:09:18.021Z,97160.09
2022-07-30T19:11:48.219Z,97159.63
2022-07-30T19:14:22.444Z,97160.81
2022-07-30T19:16:54.179Z,97165.94
2022-07-30T19:19:30.790Z,97169.03
2022-07-30T19:22:00.654Z,97171.31
2022-07-30T19:24:33.051Z,97177.59
2022-07-30T19:27:03.472Z,97177.13
2022-07-30T19:29:33.443Z,97181.81
2022-07-30T19:32:03.991Z,97181.38
2022-07-30T19:34:37.883Z,97190.53
2022-07-30T19:37:11.704Z,97183.59
2022-07-30T19:40:05.457Z,97190.59
2022-07-30T19:42:41.341Z,97192.75
2022-07-30T19:45:15.769Z,97198.09
2022-07-30T19:47:49.002Z,97191.13
2022-07-30T19:50:27.160Z,97196.38
2022-07-30T19:53:00.404Z,97188.78
2022-07-30T19:55:35.550Z,97198.38
2022-07-30T19:58:15.893Z,97194.41
2022-07-30T20:00:49.900Z,97194.38
2022-07-30T20:03:25.928Z,97205.22
2022-07-30T20:06:04.435Z,97195.81
2022-07-30T20:08:40.112Z,97200.06
2022-07-30T20:11:21.290Z,97204.31
2022-07-30T20:14:04.671Z,97205.44
2022-07-30T20:16:36.775Z,97209.28
2022-07-30T20:19:08.936Z,97210.44
2022-07-30T20:21:54.265Z,97213.03
2022-07-30T20:24:35.290Z,97227.97
2022-07-30T20:27:35.326Z,97221.13
2022-07-30T20:29:52.050Z,97223.22
2022-07-30T20:32:22.103Z,97218.66
2022-07-30T20:34:50.822Z,97229.47
2022-07-30T20:40:11.869Z,97227.19
2022-07-30T20:42:42.702Z,97226.00
2022-07-30T20:45:12.270Z,97226.41
2022-07-30T20:47:41.965Z,97221.28
2022-07-30T20:50:15.424Z,97222.00
2022-07-30T20:52:48.073Z,97227.00
2022-07-30T20:55:17.632Z,97228.97
2022-07-30T20:58:00.221Z,97234.13
2022-07-30T21:00:36.687Z,97230.41
2022-07-30T21:03:05.678Z,97229.84
2022-07-30T21:05:35.674Z,97232.88
2022-07-30T21:08:06.145Z,97237.97
2022-07-30T21:10:35.717Z,97242.47
2022-07-30T21:13:07.425Z,97237.88
2022-07-30T21:15:37.062Z,97233.78
2022-07-30T21:18:14.467Z,97241.63
2022-07-30T21:20:43.046Z,97242.34
2022-07-30T21:23:22.159Z,97251.72
2022-07-30T21:26:00.449Z,97245.03
2022-07-30T21:28:35.853Z,97242.25
2022-07-30T21:31:07.198Z,97249.31
2022-07-30T21:33:36.662Z,97248.41
2022-07-30T21:36:10.726Z,97251.16
2022-07-30T21:38:41.818Z,97247.06
2022-07-30T21:41:14.158Z,97256.59
2022-07-30T21:43:44.867Z,97242.97
2022-07-30T21:46:14.090Z,97254.22
2022-07-30T21:48:44.167Z,97257.69
2022-07-30T21:51:13.894Z,97262.56
2022-07-30T21:53:45.862Z,97260.06
2022-07-30T21:56:16.268Z,97263.91
2022-07-30T21:58:45.634Z,97263.44
2022-07-30T22:01:21.799Z,97261.81
2022-07-30T22:04:01.470Z,97257.22
2022-07-30T22:06:38.230Z,97257.22
2022-07-30T22:09:19.108Z,97257.31
2022-07-30T22:12:01.460Z,97256.06
2022-07-30T22:14:31.483Z,97262.44
2022-07-30T22:17:00.472Z,97260.66
2022-07-30T22:19:28.864Z,97268.38
2022-07-30T22:21:57.497Z,97249.84
2022-07-30T22:24:31.290Z,97261.81
2022-07-30T22:27:10.789Z,97265.88
2022-07-30T22:29:43.481Z,97251.09
2022-07-30T22:32:12.504Z,97256.47
2022-07-30T22:34:41.305Z,97259.03
2022-07-30T22:37:12.819Z,97260.56
2022-07-30T22:39:50.574Z,97250.69
2022-07-30T22:42:23.934Z,97256.78
2022-07-30T22:44:54.815Z,97250.94
2022-07-30T22:47:50.946Z,97253.78
2022-07-30T22:50:14.682Z,97253.19
2022-07-30T22:52:53.251Z,97248.72
2022-07-30T22:55:38.195Z,97251.03
2022-07-30T22:58:06.593Z,97247.00
2022-07-30T23:00:35.276Z,97252.16
2022-07-30T23:03:04.215Z,97243.28
2022-07-30T23:05:36.645Z,97258.34
2022-07-30T23:08:08.367Z,97249.06
2022-07-30T23:10:38.047Z,97250.25
2022-07-30T23:12:18.231Z,97222.16
2022-07-30T23:15:36.385Z,97247.75
2022-07-30T23:18:04.891Z,97241.00
2022-07-30T23:20:33.357Z,97245.59
2022-07-30T23:23:03.097Z,97243.41
2022-07-30T23:25:38.693Z,97243.22
2022-07-30T23:28:08.869Z,97246.41
2022-07-30T23:30:37.199Z,97238.28
2022-07-30T23:33:05.748Z,97249.53
2022-07-30T23:35:34.969Z,97247.13
2022-07-30T23:38:03.336Z,97245.97
2022-07-30T23:40:31.812Z,97246.09
2022-07-30T23:43:00.167Z,97245.38
2022-07-30T23:45:30.030Z,97238.38
2022-07-30T23:48:02.783Z,97244.34
2022-07-30T23:50:33.306Z,97242.06
2022-07-30T23:53:03.569Z,97240.34
2022-07-30T23:55:33.628Z,97244.81
2022-07-30T23:58:01.929Z,97249.06
